createdAt,value
2023-02-23T00:02:18.193Z,23.20
2023-02-23T00:05:22.184Z,26.27
2023-02-23T00:08:28.368Z,43.13
2023-02-23T00:11:33.711Z,35.17
2023-02-23T00:14:38.308Z,28.42
2023-02-23T00:17:42.208Z,26.65
2023-02-23T00:20:48.618Z,45.47
2023-02-23T00:23:57.514Z,48.65
2023-02-23T00:27:06.353Z,24.13
2023-02-23T00:30:12.565Z,22.70
2023-02-23T00:33:17.000Z,20.95
2023-02-23T00:36:22.540Z,23.02
2023-02-23T00:39:29.264Z,23.08
2023-02-23T00:42:32.988Z,20.53
2023-02-23T00:45:38.277Z,18.33
2023-02-23T00:48:42.091Z,17.05
2023-02-23T00:51:47.026Z,22.10
2023-02-23T00:54:51.591Z,31.77
2023-02-23T00:57:55.097Z,27.90
2023-02-23T01:01:01.627Z,29.17
2023-02-23T01:04:06.410Z,24.55
2023-02-23T01:07:13.030Z,19.73
2023-02-23T01:10:19.969Z,27.75
2023-02-23T01:13:25.296Z,18.33
2023-02-23T01:16:34.864Z,19.70
2023-02-23T01:19:38.612Z,16.65
2023-02-23T01:22:42.892Z,17.98
2023-02-23T01:25:49.552Z,18.55
2023-02-23T01:28:55.763Z,15.97
2023-02-23T01:32:04.220Z,14.45
2023-02-23T01:35:12.834Z,18.65
2023-02-23T01:38:16.278Z,17.30
2023-02-23T01:41:20.246Z,14.85
2023-02-23T01:44:26.689Z,22.47
2023-02-23T01:47:32.233Z,16.00
2023-02-23T01:51:13.913Z,21.42
2023-02-23T01:54:21.598Z,18.08
2023-02-23T01:57:27.187Z,23.08
2023-02-23T02:00:32.632Z,17.57
2023-02-23T02:03:47.651Z,19.08
2023-02-23T02:06:54.003Z,22.35
2023-02-23T02:10:11.104Z,27.52
2023-02-23T02:13:18.678Z,24.42
2023-02-23T02:16:33.948Z,20.07
2023-02-23T02:20:01.889Z,20.38
2023-02-23T02:23:37.656Z,28.38
2023-02-23T02:26:52.095Z,19.40
2023-02-23T02:30:24.918Z,20.90
2023-02-23T02:33:44.053Z,20.40
2023-02-23T02:37:09.072Z,23.40
2023-02-23T02:40:25.726Z,22.70
2023-02-23T02:43:43.018Z,21.75
2023-02-23T02:46:55.189Z,24.23
2023-02-23T02:50:19.576Z,21.00
2023-02-23T02:53:52.109Z,22.80
2023-02-23T02:57:00.548Z,17.27
2023-02-23T03:00:24.291Z,16.67
2023-02-23T03:04:00.443Z,18.25
2023-02-23T03:07:35.549Z,19.00
2023-02-23T03:11:09.234Z,21.10
2023-02-23T03:14:31.111Z,22.85
2023-02-23T03:18:16.443Z,21.95
2023-02-23T03:22:15.483Z,21.75
2023-02-23T03:26:00.593Z,19.87
2023-02-23T03:29:47.210Z,17.98
2023-02-23T03:33:14.332Z,21.45
2023-02-23T03:36:46.436Z,18.27
2023-02-23T03:40:21.914Z,18.03
2023-02-23T03:43:53.829Z,22.63
2023-02-23T03:47:17.465Z,21.88
2023-02-23T03:50:56.506Z,19.92
2023-02-23T03:54:56.351Z,18.48
2023-02-23T03:58:21.613Z,18.10
2023-02-23T04:01:45.189Z,14.90
2023-02-23T04:05:08.426Z,20.35
2023-02-23T04:08:33.752Z,17.02
2023-02-23T04:12:10.270Z,18.67
2023-02-23T04:15:28.575Z,15.40
2023-02-23T04:18:35.870Z,19.20
2023-02-23T04:21:39.375Z,21.92
2023-02-23T04:24:42.846Z,19.23
2023-02-23T04:27:46.336Z,20.42
2023-02-23T04:30:52.376Z,19.88
2023-02-23T04:33:55.912Z,21.60
2023-02-23T04:36:59.614Z,22.70
2023-02-23T04:40:03.106Z,22.92
2023-02-23T04:43:06.638Z,20.35
2023-02-23T04:46:10.094Z,20.93
2023-02-23T04:49:13.607Z,23.63
2023-02-23T04:52:17.426Z,26.05
2023-02-23T04:55:25.363Z,27.48
2023-02-23T04:58:30.399Z,23.07
2023-02-23T05:01:33.873Z,22.33
2023-02-23T05:04:37.455Z,36.25
2023-02-23T05:07:41.073Z,20.88
2023-02-23T05:10:46.042Z,15.97
2023-02-23T05:13:49.556Z,24.05
2023-02-23T05:16:53.401Z,38.83
2023-02-23T05:19:57.037Z,26.02
2023-02-23T05:23:00.675Z,26.67
2023-02-23T05:26:07.492Z,22.35
2023-02-23T05:29:11.051Z,23.58
2023-02-23T05:32:15.505Z,23.90
2023-02-23T05:35:19.161Z,26.57
2023-02-23T05:38:22.830Z,22.50
2023-02-23T05:41:26.586Z,22.27
2023-02-23T05:44:30.074Z,28.83
2023-02-23T05:47:35.651Z,45.63
2023-02-23T05:50:39.187Z,46.80
2023-02-23T05:53:43.417Z,29.23
2023-02-23T05:56:46.832Z,26.90
2023-02-23T05:59:50.409Z,24.15
2023-02-23T06:02:54.392Z,20.30
2023-02-23T06:05:59.449Z,20.60
2023-02-23T06:09:04.265Z,19.55
2023-02-23T06:12:09.193Z,22.05
2023-02-23T06:15:12.783Z,18.85
2023-02-23T06:18:17.718Z,22.83
2023-02-23T06:21:21.553Z,22.02
2023-02-23T06:24:25.104Z,19.70
2023-02-23T06:27:28.460Z,24.00
2023-02-23T06:30:32.481Z,20.20
2023-02-23T06:33:36.247Z,38.60
2023-02-23T06:36:39.861Z,32.78
2023-02-23T06:39:43.397Z,27.13
2023-02-23T06:42:47.411Z,33.75
2023-02-23T06:45:51.146Z,30.35
2023-02-23T06:48:59.875Z,29.47
2023-02-23T06:52:03.647Z,29.95
2023-02-23T06:55:08.573Z,31.23
2023-02-23T06:58:12.168Z,35.30
2023-02-23T07:01:16.379Z,40.75
2023-02-23T07:04:20.008Z,49.67
2023-02-23T07:07:23.745Z,41.70
2023-02-23T07:10:27.332Z,65.65
2023-02-23T07:13:30.952Z,48.13
2023-02-23T07:16:34.595Z,44.30
2023-02-23T07:19:38.248Z,37.47
2023-02-23T07:22:43.935Z,40.40
2023-02-23T07:25:47.440Z,33.70
2023-02-23T07:28:53.911Z,30.58
2023-02-23T07:31:57.728Z,30.17
2023-02-23T07:35:01.329Z,27.97
2023-02-23T07:38:07.555Z,30.17
2023-02-23T07:41:11.073Z,28.25
2023-02-23T07:44:14.850Z,23.48
2023-02-23T07:47:18.560Z,28.17
2023-02-23T07:50:22.230Z,25.87
2023-02-23T07:53:27.970Z,23.95
2023-02-23T07:56:31.729Z,26.05
2023-02-23T07:59:35.314Z,25.63
2023-02-23T08:02:38.926Z,25.48
2023-02-23T08:05:44.704Z,26.63
2023-02-23T08:08:48.492Z,27.15
2023-02-23T08:11:52.057Z,26.20
2023-02-23T08:14:55.580Z,23.17
2023-02-23T08:17:59.240Z,25.67
2023-02-23T08:21:04.816Z,27.27
2023-02-23T08:24:08.578Z,25.38
2023-02-23T08:27:12.966Z,24.88
2023-02-23T08:30:17.163Z,29.65
2023-02-23T08:33:20.809Z,26.33
2023-02-23T08:36:24.429Z,26.00
2023-02-23T08:39:27.999Z,24.77
2023-02-23T08:42:31.494Z,27.30
2023-02-23T08:45:35.060Z,23.33
2023-02-23T08:48:40.734Z,27.80
2023-02-23T08:51:47.040Z,29.03
2023-02-23T08:54:51.019Z,30.25
2023-02-23T08:57:54.865Z,26.08
2023-02-23T09:00:58.869Z,29.45
2023-02-23T09:04:02.516Z,23.83
2023-02-23T09:07:06.502Z,20.93
2023-02-23T09:10:12.158Z,29.17
2023-02-23T09:13:17.428Z,27.80
2023-02-23T09:16:21.116Z,20.48
2023-02-23T09:19:24.984Z,21.98
2023-02-23T09:22:29.146Z,24.27
2023-02-23T09:25:33.157Z,23.23
2023-02-23T09:28:38.405Z,25.50
2023-02-23T09:31:43.890Z,28.25
2023-02-23T09:34:48.808Z,21.92
2023-02-23T09:37:55.049Z,19.83
2023-02-23T09:40:58.624Z,23.05
2023-02-23T09:44:21.598Z,22.42
2023-02-23T09:47:33.870Z,30.80
2023-02-23T09:50:40.511Z,22.05
2023-02-23T09:53:56.901Z,20.30
2023-02-23T09:57:03.660Z,22.38
2023-02-23T10:00:37.798Z,18.83
2023-02-23T10:03:54.824Z,27.73
2023-02-23T10:07:00.638Z,18.70
2023-02-23T10:10:11.246Z,24.27
2023-02-23T10:13:42.267Z,20.58
2023-02-23T10:16:57.618Z,17.88
2023-02-23T10:20:14.682Z,18.50
2023-02-23T10:23:31.690Z,21.30
2023-02-23T10:26:44.235Z,17.87
2023-02-23T10:29:52.909Z,19.38
2023-02-23T10:33:17.238Z,18.52
2023-02-23T10:36:35.449Z,19.05
2023-02-23T10:39:42.270Z,14.13
2023-02-23T10:42:46.086Z,13.67
2023-02-23T10:45:52.158Z,17.45
2023-02-23T10:48:57.692Z,16.15
2023-02-23T10:52:03.161Z,20.15
2023-02-23T10:55:22.886Z,19.60
2023-02-23T10:58:26.769Z,19.20
2023-02-23T11:01:49.154Z,22.00
2023-02-23T11:05:00.965Z,24.17
2023-02-23T11:08:27.348Z,21.02
2023-02-23T11:11:31.307Z,16.90
2023-02-23T11:14:35.072Z,19.90
2023-02-23T11:17:39.466Z,21.13
2023-02-23T11:20:43.410Z,18.80
2023-02-23T11:23:50.048Z,20.70
2023-02-23T11:27:00.483Z,19.35
2023-02-23T11:30:07.119Z,21.23
2023-02-23T11:33:21.672Z,18.95
2023-02-23T11:36:31.173Z,19.35
2023-02-23T11:39:35.266Z,17.42
2023-02-23T11:42:50.681Z,14.57
2023-02-23T11:46:00.898Z,21.30
2023-02-23T11:49:09.024Z,15.20
2023-02-23T11:52:24.859Z,17.60
2023-02-23T11:55:30.160Z,22.63
2023-02-23T11:58:53.937Z,19.17
2023-02-23T12:02:19.318Z,19.03
2023-02-23T12:05:31.534Z,16.00
2023-02-23T12:08:55.797Z,15.80
2023-02-23T12:12:11.759Z,11.15
2023-02-23T12:15:59.964Z,13.55
2023-02-23T12:19:13.673Z,14.93
2023-02-23T12:22:25.874Z,12.38
2023-02-23T12:25:45.734Z,14.43
2023-02-23T12:28:58.871Z,14.30
2023-02-23T12:32:13.532Z,15.30
2023-02-23T12:35:31.205Z,14.43
2023-02-23T12:38:57.785Z,14.13
2023-02-23T12:42:38.312Z,14.88
2023-02-23T12:46:16.270Z,14.60
2023-02-23T12:49:26.550Z,12.23
2023-02-23T12:52:36.896Z,15.97
2023-02-23T12:55:58.862Z,13.50
2023-02-23T12:59:22.133Z,12.52
2023-02-23T13:02:45.933Z,14.15
2023-02-23T13:06:19.996Z,10.93
2023-02-23T13:10:00.993Z,15.87
2023-02-23T13:13:16.390Z,16.20
2023-02-23T13:16:44.439Z,25.50
2023-02-23T13:20:16.122Z,16.60
2023-02-23T13:23:57.065Z,15.30
2023-02-23T13:27:34.200Z,15.20
2023-02-23T13:30:42.523Z,12.90
2023-02-23T13:33:46.330Z,11.65
2023-02-23T13:36:50.725Z,16.42
2023-02-23T13:39:54.200Z,17.13
2023-02-23T13:43:17.917Z,14.10
2023-02-23T13:46:44.498Z,20.42
2023-02-23T13:50:05.065Z,49.78
2023-02-23T13:53:44.046Z,21.63
2023-02-23T13:56:56.903Z,13.13
2023-02-23T14:00:01.208Z,11.17
2023-02-23T14:03:07.227Z,18.08
2023-02-23T14:06:15.402Z,36.83
2023-02-23T14:09:35.256Z,19.65
2023-02-23T14:12:40.881Z,14.20
2023-02-23T14:15:49.974Z,14.67
2023-02-23T14:19:07.015Z,232.02
2023-02-23T14:22:15.860Z,42.85
2023-02-23T14:25:54.618Z,22.23
2023-02-23T14:29:17.853Z,19.45
2023-02-23T14:32:21.487Z,111.40
2023-02-23T14:35:34.243Z,80.43
2023-02-23T14:38:47.820Z,13.80
2023-02-23T14:41:56.362Z,14.05
2023-02-23T14:45:07.891Z,14.57
2023-02-23T14:48:13.671Z,13.73
2023-02-23T14:51:52.526Z,12.00
2023-02-23T14:55:18.346Z,16.65
2023-02-23T14:58:38.774Z,44.85
2023-02-23T15:02:08.843Z,42.15
2023-02-23T15:06:02.084Z,21.57
2023-02-23T15:09:07.181Z,34.63
2023-02-23T15:12:29.591Z,73.53
2023-02-23T15:15:33.088Z,48.95
2023-02-23T15:18:44.620Z,20.15
2023-02-23T15:21:56.435Z,33.57
2023-02-23T15:25:02.277Z,41.75
2023-02-23T15:28:23.102Z,26.75
2023-02-23T15:31:31.520Z,23.63
2023-02-23T15:34:35.859Z,17.98
2023-02-23T15:37:59.503Z,51.23
2023-02-23T15:41:37.147Z,46.03
2023-02-23T15:44:45.001Z,28.17
2023-02-23T15:47:52.898Z,26.98
2023-02-23T15:50:58.023Z,26.42
2023-02-23T15:54:03.960Z,25.90
2023-02-23T15:57:17.730Z,21.55
2023-02-23T16:00:33.060Z,97.28
2023-02-23T16:03:44.374Z,82.50
2023-02-23T16:06:55.447Z,80.70
2023-02-23T16:10:40.545Z,37.47
2023-02-23T16:13:48.672Z,18.73
2023-02-23T16:17:10.000Z,24.70
2023-02-23T16:20:19.322Z,71.93
2023-02-23T16:23:41.710Z,138.38
2023-02-23T16:26:53.921Z,128.27
2023-02-23T16:30:16.192Z,56.03
2023-02-23T16:33:42.134Z,62.22
2023-02-23T16:36:51.757Z,60.72
2023-02-23T16:39:56.805Z,51.05
2023-02-23T16:43:00.518Z,53.03
2023-02-23T16:46:04.237Z,55.00
2023-02-23T16:49:12.477Z,55.63
2023-02-23T16:52:19.654Z,52.13
2023-02-23T16:55:26.070Z,57.53
2023-02-23T16:58:30.563Z,48.60
2023-02-23T17:01:34.026Z,53.78
2023-02-23T17:04:37.495Z,53.42
2023-02-23T17:07:41.378Z,52.20
2023-02-23T17:10:48.033Z,52.25
2023-02-23T17:13:51.504Z,114.83
2023-02-23T17:16:55.141Z,103.82
2023-02-23T17:19:58.921Z,105.22
2023-02-23T17:23:03.921Z,97.88
2023-02-23T17:26:11.628Z,113.25
2023-02-23T17:29:15.115Z,104.43
2023-02-23T17:32:18.736Z,122.70
2023-02-23T17:35:23.564Z,129.20
2023-02-23T17:38:34.676Z,85.55
2023-02-23T17:41:38.492Z,108.40
2023-02-23T17:44:42.040Z,74.63
2023-02-23T17:47:45.701Z,62.58
2023-02-23T17:51:01.172Z,64.88
2023-02-23T17:54:04.891Z,73.82
2023-02-23T17:57:08.468Z,70.30
2023-02-23T18:00:13.934Z,73.37
2023-02-23T18:03:17.849Z,61.90
2023-02-23T18:06:22.592Z,64.55
2023-02-23T18:09:26.338Z,87.68
2023-02-23T18:12:30.323Z,81.55
2023-02-23T18:15:34.190Z,90.67
2023-02-23T18:18:42.755Z,92.68
2023-02-23T18:21:46.709Z,190.10
2023-02-23T18:24:50.444Z,153.60
2023-02-23T18:27:55.161Z,146.02
2023-02-23T18:30:59.842Z,132.67
2023-02-23T18:34:03.611Z,98.13
2023-02-23T18:37:10.335Z,126.65
2023-02-23T18:40:23.944Z,103.50
2023-02-23T18:43:27.873Z,116.88
2023-02-23T18:46:32.412Z,96.30
2023-02-23T18:49:37.051Z,107.95
2023-02-23T18:52:41.274Z,108.30
2023-02-23T18:55:46.098Z,116.22
2023-02-23T18:58:51.512Z,105.72
2023-02-23T19:01:55.025Z,116.60
2023-02-23T19:05:02.977Z,130.07
2023-02-23T19:08:13.590Z,141.63
2023-02-23T19:11:17.559Z,133.98
2023-02-23T19:14:32.894Z,127.47
2023-02-23T19:17:46.397Z,127.47
2023-02-23T19:20:55.435Z,126.57
2023-02-23T19:24:01.188Z,132.65
2023-02-23T19:27:04.945Z,114.07
2023-02-23T19:30:10.130Z,106.53
2023-02-23T19:33:18.119Z,107.47
2023-02-23T19:36:26.259Z,106.43
2023-02-23T19:39:31.330Z,115.30
2023-02-23T19:42:37.002Z,111.38
2023-02-23T19:45:46.773Z,105.03
2023-02-23T19:48:52.082Z,94.50
2023-02-23T19:51:57.863Z,102.20
2023-02-23T19:55:02.181Z,81.63
2023-02-23T19:58:06.098Z,78.38
2023-02-23T20:01:18.295Z,79.80
2023-02-23T20:04:22.374Z,91.73
2023-02-23T20:07:26.326Z,89.82
2023-02-23T20:10:34.850Z,85.63
2023-02-23T20:13:39.519Z,87.10
2023-02-23T20:16:43.661Z,83.30
2023-02-23T20:19:47.447Z,82.50
2023-02-23T20:22:53.537Z,94.50
2023-02-23T20:25:57.713Z,84.90
2023-02-23T20:29:03.191Z,53.08
2023-02-23T20:32:07.578Z,71.45
2023-02-23T20:35:16.648Z,57.47
2023-02-23T20:38:20.684Z,81.15
2023-02-23T20:41:28.171Z,77.00
2023-02-23T20:44:33.112Z,86.70
2023-02-23T20:47:38.137Z,96.78
2023-02-23T20:50:42.564Z,104.33
2023-02-23T20:53:48.246Z,101.10
2023-02-23T20:56:59.046Z,93.15
2023-02-23T21:00:11.418Z,99.60
2023-02-23T21:03:16.561Z,113.50
2023-02-23T21:06:22.139Z,116.63
2023-02-23T21:09:26.152Z,114.78
2023-02-23T21:12:30.301Z,118.82
2023-02-23T21:15:35.187Z,135.60
2023-02-23T21:18:39.914Z,131.65
2023-02-23T21:21:49.823Z,155.38
2023-02-23T21:24:53.476Z,150.60
2023-02-23T21:27:57.346Z,156.18
2023-02-23T21:31:00.934Z,167.68
2023-02-23T21:34:06.587Z,175.20
2023-02-23T21:37:10.196Z,167.55
2023-02-23T21:40:20.801Z,97.45
2023-02-23T21:43:24.513Z,119.32
2023-02-23T21:46:28.674Z,105.83
2023-02-23T21:49:32.275Z,82.55
2023-02-23T21:52:36.930Z,86.03
2023-02-23T21:55:40.608Z,87.70
2023-02-23T21:58:49.589Z,76.40
2023-02-23T22:01:53.187Z,72.80
2023-02-23T22:04:58.284Z,59.75
2023-02-23T22:08:01.683Z,57.58
2023-02-23T22:11:10.566Z,68.07
2023-02-23T22:14:16.596Z,67.77
2023-02-23T22:17:20.330Z,62.10
2023-02-23T22:20:25.376Z,59.03
2023-02-23T22:23:29.007Z,57.85
2023-02-23T22:26:37.761Z,65.60
2023-02-23T22:29:41.860Z,73.67
2023-02-23T22:32:45.712Z,61.05
2023-02-23T22:35:52.660Z,52.88
2023-02-23T22:38:59.781Z,61.78
2023-02-23T22:42:09.424Z,59.78
2023-02-23T22:45:13.090Z,48.97
2023-02-23T22:48:16.547Z,43.38
2023-02-23T22:51:20.910Z,38.90
2023-02-23T22:54:24.694Z,53.10
2023-02-23T22:57:28.080Z,65.10
2023-02-23T23:00:32.089Z,60.80
2023-02-23T23:03:36.715Z,55.80
2023-02-23T23:06:42.891Z,54.17
2023-02-23T23:09:46.875Z,53.17
2023-02-23T23:12:50.572Z,62.25
2023-02-23T23:15:57.715Z,73.37
2023-02-23T23:19:13.202Z,47.97
2023-02-23T23:22:17.524Z,42.28
2023-02-23T23:25:23.279Z,37.00
2023-02-23T23:28:27.867Z,38.70
2023-02-23T23:31:34.923Z,34.05
2023-02-23T23:34:38.561Z,39.58
2023-02-23T23:37:42.044Z,34.25
2023-02-23T23:40:47.084Z,34.28
2023-02-23T23:43:54.757Z,38.67
2023-02-23T23:46:58.620Z,33.20
2023-02-23T23:50:03.158Z,34.78
2023-02-23T23:53:07.772Z,45.97
2023-02-23T23:56:11.807Z,29.10
2023-02-23T23:59:18.067Z,38.50
